createdAt,value
2022-08-11T06:41:17.860Z,3.77
2022-08-11T06:44:00.849Z,3.10
2022-08-11T06:46:33.259Z,3.00
2022-08-11T06:49:03.782Z,4.30
2022-08-11T06:51:32.604Z,2.93
2022-08-11T06:54:04.066Z,3.40
2022-08-11T06:57:18.649Z,3.10
2022-08-11T07:00:05.253Z,3.30
2022-08-11T07:02:36.983Z,3.47
2022-08-11T07:05:22.427Z,3.00
2022-08-11T07:08:51.032Z,3.67
2022-08-11T07:12:22.354Z,3.00
2022-08-11T07:15:12.292Z,3.10
2022-08-11T07:17:52.237Z,3.33
2022-08-11T07:20:37.558Z,3.23
2022-08-11T07:23:28.081Z,3.30
2022-08-11T07:26:18.084Z,3.80
2022-08-11T07:28:56.506Z,3.60
2022-08-11T07:31:35.862Z,3.23
2022-08-11T07:34:28.513Z,2.77
2022-08-11T07:36:58.564Z,2.90
2022-08-11T07:39:28.321Z,3.70
2022-08-11T07:41:57.812Z,3.43
2022-08-11T07:44:34.302Z,3.50
2022-08-11T07:47:21.177Z,3.37
2022-08-11T07:50:09.116Z,3.30
2022-08-11T07:52:38.165Z,3.07
2022-08-11T07:55:13.343Z,3.60
2022-08-11T07:58:15.225Z,2.90
2022-08-11T08:01:21.682Z,3.00
2022-08-11T08:04:09.241Z,3.20
2022-08-11T08:06:56.349Z,3.17
2022-08-11T08:09:42.055Z,3.27
2022-08-11T08:12:28.142Z,3.40
2022-08-11T08:15:14.421Z,3.27
2022-08-11T08:18:25.413Z,2.97
2022-08-11T08:20:49.702Z,3.10
2022-08-11T08:23:18.106Z,2.73
2022-08-11T08:25:45.857Z,2.70
2022-08-11T08:28:19.265Z,3.50
2022-08-11T08:30:50.857Z,4.53
2022-08-11T08:33:22.127Z,2.90
2022-08-11T08:36:11.200Z,3.13
2022-08-11T08:38:50.052Z,2.87
2022-08-11T08:41:23.014Z,4.87
2022-08-11T08:43:53.636Z,3.63
2022-08-11T08:46:27.953Z,3.20
2022-08-11T08:48:55.109Z,2.70
2022-08-11T08:52:01.069Z,3.07
2022-08-11T08:54:27.847Z,3.60
2022-08-11T08:56:56.370Z,2.77
2022-08-11T08:59:26.541Z,3.07
2022-08-11T09:02:13.856Z,2.60
2022-08-11T09:04:44.436Z,3.13
2022-08-11T09:07:14.392Z,2.87
2022-08-11T09:09:53.429Z,2.57
2022-08-11T09:12:38.606Z,2.40
2022-08-11T09:15:11.550Z,2.80
2022-08-11T09:18:05.929Z,2.57
2022-08-11T09:20:35.282Z,2.53
2022-08-11T09:26:30.951Z,2.73
2022-08-11T09:28:58.951Z,2.67
2022-08-11T09:31:26.991Z,2.50
2022-08-11T09:33:55.283Z,2.57
2022-08-11T09:36:41.132Z,2.40
2022-08-11T09:39:27.794Z,2.60
2022-08-11T09:42:01.845Z,2.37
2022-08-11T09:44:50.278Z,3.23
2022-08-11T09:47:26.214Z,2.13
2022-08-11T09:58:41.728Z,2.60
2022-08-11T10:01:07.880Z,2.50
2022-08-11T10:03:40.418Z,2.73
2022-08-11T10:06:34.412Z,2.43
2022-08-11T10:09:06.212Z,2.50
2022-08-11T10:11:36.281Z,2.13
2022-08-11T10:14:33.429Z,2.10
2022-08-11T10:17:06.323Z,2.30
2022-08-11T10:19:36.270Z,2.30
2022-08-11T10:22:23.829Z,2.40
2022-08-11T10:25:14.792Z,2.70
2022-08-11T10:28:17.655Z,2.50
2022-08-11T10:30:52.241Z,2.47
2022-08-11T10:33:46.537Z,2.17
2022-08-11T10:36:29.782Z,3.57
2022-08-11T10:43:03.205Z,2.50
2022-08-11T10:45:50.376Z,2.50
2022-08-11T10:48:21.189Z,2.30
2022-08-11T10:51:08.926Z,2.40
2022-08-11T10:53:56.813Z,2.20
2022-08-11T10:56:42.654Z,2.23
2022-08-11T10:59:10.246Z,2.40
2022-08-11T11:01:43.863Z,2.87
2022-08-11T11:04:17.194Z,2.42
2022-08-11T11:06:55.696Z,2.55
2022-08-11T11:09:32.329Z,2.75
2022-08-11T11:12:29.641Z,2.50
2022-08-11T11:15:17.901Z,2.40
2022-08-11T11:17:56.333Z,2.10
2022-08-11T11:20:36.467Z,2.35
2022-08-11T11:23:10.025Z,2.55
2022-08-11T11:26:06.266Z,1.92
2022-08-11T11:28:59.386Z,2.50
2022-08-11T11:31:51.674Z,2.50
2022-08-11T11:34:37.246Z,2.35
2022-08-11T11:37:20.494Z,2.30
2022-08-11T11:39:47.493Z,2.45
2022-08-11T11:42:16.446Z,2.50
2022-08-11T11:44:45.839Z,2.30
2022-08-11T11:47:14.231Z,2.42
2022-08-11T11:49:44.017Z,2.47
2022-08-11T11:52:18.092Z,2.10
2022-08-11T11:54:46.536Z,2.65
2022-08-11T11:57:33.532Z,2.35
2022-08-11T12:00:18.999Z,2.40
2022-08-11T12:02:45.769Z,2.08
2022-08-11T12:05:14.125Z,2.60
2022-08-11T12:08:10.509Z,2.92
2022-08-11T12:10:44.272Z,2.55
2022-08-11T12:13:30.353Z,2.50
2022-08-11T12:16:34.074Z,2.40
2022-08-11T12:18:58.014Z,2.08
2022-08-11T12:21:26.307Z,2.28
2022-08-11T12:24:13.159Z,2.63
2022-08-11T12:27:15.101Z,2.80
2022-08-11T12:29:45.242Z,2.10
2022-08-11T12:32:12.231Z,2.03
2022-08-11T12:34:38.853Z,2.38
2022-08-11T12:37:10.865Z,2.20
2022-08-11T12:40:15.623Z,2.30
2022-08-11T12:43:21.807Z,2.75
2022-08-11T12:45:53.430Z,2.10
2022-08-11T12:48:58.805Z,2.60
2022-08-11T12:52:11.080Z,2.80
2022-08-11T12:54:58.749Z,2.67
2022-08-11T12:57:52.002Z,2.15
2022-08-11T13:00:38.551Z,2.25
2022-08-11T13:03:26.487Z,2.60
2022-08-11T13:05:56.324Z,2.63
2022-08-11T13:08:25.422Z,3.20
2022-08-11T13:11:12.892Z,2.17
2022-08-11T13:13:54.781Z,2.45
2022-08-11T13:16:30.718Z,2.45
2022-08-11T13:19:01.068Z,2.17
2022-08-11T13:21:29.262Z,2.05
2022-08-11T13:24:01.955Z,2.15
2022-08-11T13:26:43.656Z,2.33
2022-08-11T13:29:26.286Z,2.30
2022-08-11T13:31:55.952Z,2.00
2022-08-11T13:34:25.455Z,2.03
2022-08-11T13:36:55.013Z,2.17
2022-08-11T13:39:24.624Z,2.17
2022-08-11T13:41:53.494Z,2.47
2022-08-11T13:44:25.546Z,2.05
2022-08-11T13:46:58.605Z,2.08
2022-08-11T13:49:26.907Z,2.13
2022-08-11T13:51:55.306Z,2.60
2022-08-11T13:54:27.880Z,1.77
2022-08-11T13:56:58.027Z,2.00
2022-08-11T13:59:30.825Z,2.00
2022-08-11T14:02:28.414Z,1.80
2022-08-11T14:04:57.880Z,2.47
2022-08-11T14:07:34.726Z,1.92
2022-08-11T14:10:02.714Z,2.05
2022-08-11T14:12:54.030Z,1.52
2022-08-11T14:15:31.088Z,1.88
2022-08-11T14:18:11.682Z,1.80
2022-08-11T14:21:00.598Z,1.60
2022-08-11T14:23:31.506Z,1.60
2022-08-11T14:26:18.282Z,1.80
2022-08-11T14:28:45.608Z,1.67
2022-08-11T14:31:15.781Z,1.92
2022-08-11T14:34:00.377Z,2.08
2022-08-11T14:36:41.877Z,1.65
2022-08-11T14:39:14.406Z,1.60
2022-08-11T14:42:10.449Z,2.03
2022-08-11T14:45:01.312Z,1.67
2022-08-11T14:47:30.918Z,1.63
2022-08-11T14:50:09.991Z,1.50
2022-08-11T14:52:43.255Z,1.60
2022-08-11T14:55:29.455Z,1.48
2022-08-11T14:57:57.006Z,1.65
2022-08-11T15:00:24.859Z,1.35
2022-08-11T15:03:10.116Z,1.65
2022-08-11T15:05:57.062Z,1.50
2022-08-11T15:08:46.804Z,1.58
2022-08-11T15:11:34.753Z,1.50
2022-08-11T15:14:04.573Z,1.70
2022-08-11T15:16:50.175Z,1.65
2022-08-11T15:19:21.226Z,3.70
2022-08-11T15:22:08.028Z,2.50
2022-08-11T15:24:36.423Z,1.60
2022-08-11T15:27:32.051Z,1.23
2022-08-11T15:30:32.637Z,1.45
2022-08-11T15:33:26.593Z,1.48
2022-08-11T15:36:14.334Z,1.40
2022-08-11T15:38:46.681Z,1.35
2022-08-11T15:41:36.080Z,1.15
2022-08-11T15:44:51.416Z,1.60
2022-08-11T15:47:18.883Z,1.40
2022-08-11T15:50:11.533Z,1.98
2022-08-11T15:52:52.483Z,1.70
2022-08-11T15:55:21.455Z,1.45
2022-08-11T15:58:09.381Z,1.27
2022-08-11T16:01:04.447Z,1.92
2022-08-11T16:04:07.119Z,1.52
2022-08-11T16:06:38.247Z,1.15
2022-08-11T16:09:18.243Z,1.42
2022-08-11T16:11:47.418Z,1.40
2022-08-11T16:14:34.085Z,1.50
2022-08-11T16:17:02.875Z,1.13
2022-08-11T16:19:34.533Z,1.40
2022-08-11T16:22:03.159Z,1.20
2022-08-11T16:27:02.911Z,1.50
2022-08-11T16:27:23.869Z,1.48
2022-08-11T16:29:52.042Z,1.17
2022-08-11T16:32:23.148Z,1.50
2022-08-11T16:35:17.373Z,1.52
2022-08-11T16:38:03.975Z,1.42
2022-08-11T16:40:32.358Z,1.38
2022-08-11T16:43:18.189Z,1.40
2022-08-11T16:46:04.117Z,1.45
2022-08-11T16:48:36.962Z,1.65
2022-08-11T16:51:10.364Z,1.50
2022-08-11T16:53:54.800Z,1.90
2022-08-11T16:56:51.719Z,1.70
2022-08-11T16:59:25.641Z,1.65
2022-08-11T17:02:03.040Z,1.40
2022-08-11T17:05:09.483Z,1.50
2022-08-11T17:07:57.952Z,1.65
2022-08-11T17:10:55.655Z,1.77
2022-08-11T17:13:33.498Z,1.70
2022-08-11T17:16:10.017Z,1.80
2022-08-11T17:19:01.333Z,1.52
2022-08-11T17:21:35.549Z,1.38
2022-08-11T17:24:09.520Z,1.60
2022-08-11T17:26:57.566Z,1.77
2022-08-11T17:29:53.533Z,1.70
2022-08-11T17:33:00.121Z,1.65
2022-08-11T17:35:38.551Z,1.38
2022-08-11T17:38:25.399Z,1.70
2022-08-11T17:41:23.453Z,1.58
2022-08-11T17:44:11.241Z,1.50
2022-08-11T17:47:01.041Z,1.73
2022-08-11T17:49:37.587Z,1.23
2022-08-11T17:52:24.670Z,1.40
2022-08-11T17:55:13.372Z,1.70
2022-08-11T17:57:59.771Z,1.45
2022-08-11T18:00:26.726Z,1.40
2022-08-11T18:03:13.428Z,1.13
2022-08-11T18:05:43.621Z,1.40
2022-08-11T18:08:30.862Z,1.83
2022-08-11T18:12:00.070Z,1.60
2022-08-11T18:14:25.966Z,1.60
2022-08-11T18:17:11.523Z,1.47
2022-08-11T18:19:56.970Z,1.80
2022-08-11T18:22:45.502Z,1.60
2022-08-11T18:25:43.248Z,1.60
2022-08-11T18:28:33.615Z,1.40
2022-08-11T18:31:21.603Z,1.50
2022-08-11T18:34:15.920Z,1.17
2022-08-11T18:37:09.890Z,1.50
2022-08-11T18:40:11.156Z,1.80
2022-08-11T18:42:59.143Z,1.90
2022-08-11T18:45:45.889Z,1.60
2022-08-11T18:48:39.468Z,2.03
2022-08-11T18:51:31.465Z,1.70
2022-08-11T18:54:27.415Z,1.40
2022-08-11T18:57:14.805Z,1.87
2022-08-11T19:00:02.327Z,1.80
2022-08-11T19:02:50.495Z,1.60
2022-08-11T19:06:37.346Z,2.90
2022-08-11T19:08:49.813Z,2.40
2022-08-11T19:11:42.371Z,2.50
2022-08-11T19:14:31.379Z,1.80
2022-08-11T19:17:44.881Z,2.10
2022-08-11T19:20:29.294Z,1.60
2022-08-11T19:23:16.336Z,1.93
2022-08-11T19:26:03.412Z,2.40
2022-08-11T19:28:50.101Z,2.50
2022-08-11T19:31:37.184Z,2.63
2022-08-11T19:34:24.956Z,3.80
2022-08-11T19:37:12.511Z,2.13
2022-08-11T19:40:00.652Z,1.97
2022-08-11T19:42:46.947Z,2.30
2022-08-11T19:45:33.429Z,1.97
2022-08-11T19:48:31.875Z,2.30
2022-08-11T19:51:19.095Z,2.40
2022-08-11T19:54:07.264Z,5.97
2022-08-11T19:56:55.097Z,3.80
2022-08-11T19:59:41.783Z,3.90
2022-08-11T20:02:28.420Z,3.00
2022-08-11T20:05:13.802Z,3.33
2022-08-11T20:08:00.258Z,3.40
2022-08-11T20:10:47.862Z,3.50
2022-08-11T20:13:34.428Z,2.87
2022-08-11T20:16:21.548Z,2.37
2022-08-11T20:19:09.921Z,2.70
2022-08-11T20:21:56.994Z,2.23
2022-08-11T20:24:43.155Z,2.13
2022-08-11T20:27:29.953Z,2.37
2022-08-11T20:30:16.529Z,2.80
2022-08-11T20:33:03.011Z,2.67
2022-08-11T20:35:50.038Z,2.87
2022-08-11T20:38:36.981Z,2.23
2022-08-11T20:41:23.051Z,3.30
2022-08-11T20:44:09.981Z,2.20
2022-08-11T20:46:57.368Z,2.60
2022-08-11T20:49:53.691Z,2.10
2022-08-11T20:52:47.359Z,2.10
2022-08-11T20:55:46.199Z,1.90
2022-08-11T21:01:45.886Z,1.90
2022-08-11T21:04:32.345Z,2.10
2022-08-11T21:07:28.722Z,1.97
2022-08-11T21:10:29.168Z,1.90
2022-08-11T21:13:25.638Z,2.17
2022-08-11T21:16:16.451Z,1.90
2022-08-11T21:19:55.121Z,2.00
2022-08-11T21:22:28.107Z,1.83
2022-08-11T21:25:16.538Z,1.83
2022-08-11T21:28:03.723Z,2.00
2022-08-11T21:30:51.638Z,2.23
2022-08-11T21:33:41.114Z,2.10
2022-08-11T21:36:30.719Z,2.03
2022-08-11T21:39:16.278Z,2.57
2022-08-11T21:42:02.604Z,3.53
2022-08-11T21:44:48.214Z,2.53
2022-08-11T21:47:43.575Z,1.93
2022-08-11T21:50:30.012Z,2.50
2022-08-11T21:53:16.951Z,2.27
2022-08-11T21:56:03.449Z,2.13
2022-08-11T21:58:49.896Z,2.10
2022-08-11T22:01:36.562Z,2.13
2022-08-11T22:04:23.234Z,1.83
2022-08-11T22:07:09.831Z,2.30
2022-08-11T22:09:55.765Z,1.90
2022-08-11T22:12:44.712Z,2.00
2022-08-11T22:15:31.297Z,2.03
2022-08-11T22:18:16.771Z,2.20
2022-08-11T22:21:03.161Z,2.00
2022-08-11T22:23:51.249Z,1.83
2022-08-11T22:26:39.651Z,1.90
2022-08-11T22:29:50.338Z,2.10
2022-08-11T22:32:33.925Z,1.90
2022-08-11T22:35:21.551Z,1.90
2022-08-11T22:38:08.038Z,2.00
2022-08-11T22:40:54.556Z,2.30
2022-08-11T22:43:40.088Z,1.87
2022-08-11T22:46:25.601Z,2.10
2022-08-11T22:49:12.578Z,1.87
2022-08-11T22:52:01.181Z,2.03
2022-08-11T22:54:47.302Z,2.37
2022-08-11T22:57:34.240Z,2.00
2022-08-11T23:00:20.298Z,2.53
2022-08-11T23:03:07.161Z,1.73
2022-08-11T23:05:56.882Z,1.90
2022-08-11T23:08:42.879Z,2.10
2022-08-11T23:11:28.555Z,2.07
2022-08-11T23:14:34.039Z,2.20
2022-08-11T23:17:19.412Z,2.10
2022-08-11T23:20:20.506Z,2.00
2022-08-11T23:23:11.110Z,2.27
2022-08-11T23:25:58.355Z,2.23
2022-08-11T23:28:45.221Z,2.30
